sensor_id;sensor_type;location;lat;lon;timestamp;pressure;altitude;pressure_sealevel;temperature
61189;BMP280;47054;39.716;2.904;2023-10-13T00:02:12;100777.47;;;24.30
61189;BMP280;47054;39.716;2.904;2023-10-13T00:04:58;100779.44;;;24.29
61189;BMP280;47054;39.716;2.904;2023-10-13T00:08:03;100787.94;;;24.28
61189;BMP280;47054;39.716;2.904;2023-10-13T00:11:14;100781.34;;;24.29
61189;BMP280;47054;39.716;2.904;2023-10-13T00:14:18;100782.50;;;24.28
61189;BMP280;47054;39.716;2.904;2023-10-13T00:17:04;100779.03;;;24.27
61189;BMP280;47054;39.716;2.904;2023-10-13T00:19:49;100782.53;;;24.24
61189;BMP280;47054;39.716;2.904;2023-10-13T00:22:36;100785.25;;;24.24
61189;BMP280;47054;39.716;2.904;2023-10-13T00:25:24;100782.16;;;24.26
61189;BMP280;47054;39.716;2.904;2023-10-13T00:28:18;100756.66;;;24.16
61189;BMP280;47054;39.716;2.904;2023-10-13T00:31:10;100779.81;;;24.28
61189;BMP280;47054;39.716;2.904;2023-10-13T00:33:56;100778.69;;;24.25
61189;BMP280;47054;39.716;2.904;2023-10-13T00:36:45;100779.84;;;24.24
61189;BMP280;47054;39.716;2.904;2023-10-13T00:39:33;100788.41;;;24.19
61189;BMP280;47054;39.716;2.904;2023-10-13T00:42:20;100787.72;;;24.12
61189;BMP280;47054;39.716;2.904;2023-10-13T00:45:25;100791.31;;;24.02
61189;BMP280;47054;39.716;2.904;2023-10-13T00:48:13;100790.16;;;23.96
61189;BMP280;47054;39.716;2.904;2023-10-13T00:51:04;100785.19;;;23.91
61189;BMP280;47054;39.716;2.904;2023-10-13T00:53:51;100794.50;;;23.86
61189;BMP280;47054;39.716;2.904;2023-10-13T00:56:37;100779.09;;;23.79
61189;BMP280;47054;39.716;2.904;2023-10-13T00:59:25;100796.13;;;23.76
61189;BMP280;47054;39.716;2.904;2023-10-13T01:02:09;100794.97;;;23.74
61189;BMP280;47054;39.716;2.904;2023-10-13T01:05:14;100799.66;;;23.73
61189;BMP280;47054;39.716;2.904;2023-10-13T01:08:04;100796.19;;;23.69
61189;BMP280;47054;39.716;2.904;2023-10-13T01:10:49;100785.38;;;23.66
61189;BMP280;47054;39.716;2.904;2023-10-13T01:13:34;100791.13;;;23.68
61189;BMP280;47054;39.716;2.904;2023-10-13T01:16:22;100785.34;;;23.69
61189;BMP280;47054;39.716;2.904;2023-10-13T01:19:15;100773.34;;;23.70
61189;BMP280;47054;39.716;2.904;2023-10-13T01:22:03;100770.63;;;23.70
61189;BMP280;47054;39.716;2.904;2023-10-13T01:24:50;100766.38;;;23.73
61189;BMP280;47054;39.716;2.904;2023-10-13T01:27:37;100765.56;;;23.76
61189;BMP280;47054;39.716;2.904;2023-10-13T01:30:22;100752.09;;;23.69
61189;BMP280;47054;39.716;2.904;2023-10-13T01:33:07;100761.72;;;23.77
61189;BMP280;47054;39.716;2.904;2023-10-13T01:35:53;100756.28;;;23.77
61189;BMP280;47054;39.716;2.904;2023-10-13T01:38:39;100742.72;;;23.80
61189;BMP280;47054;39.716;2.904;2023-10-13T01:41:27;100741.91;;;23.83
61189;BMP280;47054;39.716;2.904;2023-10-13T01:44:15;100733.34;;;23.85
61189;BMP280;47054;39.716;2.904;2023-10-13T01:47:01;100729.50;;;23.86
61189;BMP280;47054;39.716;2.904;2023-10-13T01:49:50;100727.16;;;23.88
61189;BMP280;47054;39.716;2.904;2023-10-13T01:52:35;100723.72;;;23.88
61189;BMP280;47054;39.716;2.904;2023-10-13T01:55:20;100719.41;;;23.90
61189;BMP280;47054;39.716;2.904;2023-10-13T01:58:05;100724.38;;;23.92
61189;BMP280;47054;39.716;2.904;2023-10-13T02:00:58;100729.44;;;23.93
61189;BMP280;47054;39.716;2.904;2023-10-13T02:03:44;100713.56;;;23.92
61189;BMP280;47054;39.716;2.904;2023-10-13T02:06:34;100720.53;;;23.93
61189;BMP280;47054;39.716;2.904;2023-10-13T02:09:21;100717.03;;;23.92
61189;BMP280;47054;39.716;2.904;2023-10-13T02:12:11;100713.97;;;23.94
61189;BMP280;47054;39.716;2.904;2023-10-13T02:14:55;100701.22;;;23.91
61189;BMP280;47054;39.716;2.904;2023-10-13T02:17:40;100696.59;;;23.91
61189;BMP280;47054;39.716;2.904;2023-10-13T02:20:25;100696.94;;;23.93
61189;BMP280;47054;39.716;2.904;2023-10-13T02:23:14;100696.13;;;23.96
61189;BMP280;47054;39.716;2.904;2023-10-13T02:25:59;100692.25;;;23.97
61189;BMP280;47054;39.716;2.904;2023-10-13T02:28:55;100686.88;;;23.94
61189;BMP280;47054;39.716;2.904;2023-10-13T02:31:43;100689.16;;;23.95
61189;BMP280;47054;39.716;2.904;2023-10-13T02:34:39;100678.31;;;23.95
61189;BMP280;47054;39.716;2.904;2023-10-13T02:37:28;100681.44;;;23.94
61189;BMP280;47054;39.716;2.904;2023-10-13T02:40:12;100684.16;;;23.94
61189;BMP280;47054;39.716;2.904;2023-10-13T02:42:58;100683.03;;;23.91
61189;BMP280;47054;39.716;2.904;2023-10-13T02:45:51;100675.28;;;23.90
61189;BMP280;47054;39.716;2.904;2023-10-13T02:48:41;100674.56;;;23.85
61189;BMP280;47054;39.716;2.904;2023-10-13T02:51:30;100668.81;;;23.80
61189;BMP280;47054;39.716;2.904;2023-10-13T02:54:19;100681.94;;;23.81
61189;BMP280;47054;39.716;2.904;2023-10-13T02:57:04;100673.50;;;23.76
61189;BMP280;47054;39.716;2.904;2023-10-13T02:59:49;100679.66;;;23.80
61189;BMP280;47054;39.716;2.904;2023-10-13T03:02:56;100681.59;;;23.79
61189;BMP280;47054;39.716;2.904;2023-10-13T03:05:43;100674.63;;;23.78
61189;BMP280;47054;39.716;2.904;2023-10-13T03:08:27;100676.53;;;23.78
61189;BMP280;47054;39.716;2.904;2023-10-13T03:11:12;100688.16;;;23.78
61189;BMP280;47054;39.716;2.904;2023-10-13T03:13:58;100682.75;;;23.78
61189;BMP280;47054;39.716;2.904;2023-10-13T03:16:42;100680.03;;;23.78
61189;BMP280;47054;39.716;2.904;2023-10-13T03:19:27;100679.25;;;23.78
61189;BMP280;47054;39.716;2.904;2023-10-13T03:22:18;100662.69;;;23.72
61189;BMP280;47054;39.716;2.904;2023-10-13T03:25:03;100664.97;;;23.77
61189;BMP280;47054;39.716;2.904;2023-10-13T03:27:51;100680.47;;;23.77
61189;BMP280;47054;39.716;2.904;2023-10-13T03:30:35;100671.91;;;23.78
61189;BMP280;47054;39.716;2.904;2023-10-13T03:33:21;100671.56;;;23.76
61189;BMP280;47054;39.716;2.904;2023-10-13T03:36:13;100675.41;;;23.79
61189;BMP280;47054;39.716;2.904;2023-10-13T03:39:17;100680.03;;;23.78
61189;BMP280;47054;39.716;2.904;2023-10-13T03:42:02;100673.84;;;23.78
61189;BMP280;47054;39.716;2.904;2023-10-13T03:44:49;100666.94;;;23.77
61189;BMP280;47054;39.716;2.904;2023-10-13T03:47:34;100668.84;;;23.76
61189;BMP280;47054;39.716;2.904;2023-10-13T03:50:22;100672.34;;;23.77
61189;BMP280;47054;39.716;2.904;2023-10-13T03:53:17;100671.94;;;23.75
61189;BMP280;47054;39.716;2.904;2023-10-13T03:56:06;100666.97;;;23.73
61189;BMP280;47054;39.716;2.904;2023-10-13T03:58:57;100675.47;;;23.72
61189;BMP280;47054;39.716;2.904;2023-10-13T04:01:48;100659.72;;;23.60
61189;BMP280;47054;39.716;2.904;2023-10-13T04:04:35;100676.66;;;23.67
61189;BMP280;47054;39.716;2.904;2023-10-13T04:07:25;100681.31;;;23.67
61189;BMP280;47054;39.716;2.904;2023-10-13T04:10:10;100675.94;;;23.63
61189;BMP280;47054;39.716;2.904;2023-10-13T04:13:23;100680.97;;;23.61
61189;BMP280;47054;39.716;2.904;2023-10-13T04:16:24;100677.88;;;23.59
61189;BMP280;47054;39.716;2.904;2023-10-13T04:19:18;100676.38;;;23.58
61189;BMP280;47054;39.716;2.904;2023-10-13T04:22:10;100682.56;;;23.59
61189;BMP280;47054;39.716;2.904;2023-10-13T04:25:05;100673.69;;;23.55
61189;BMP280;47054;39.716;2.904;2023-10-13T04:28:12;100673.69;;;23.55
61189;BMP280;47054;39.716;2.904;2023-10-13T04:30:57;100676.78;;;23.53
61189;BMP280;47054;39.716;2.904;2023-10-13T04:33:43;100677.53;;;23.54
61189;BMP280;47054;39.716;2.904;2023-10-13T04:36:35;100675.63;;;23.51
61189;BMP280;47054;39.716;2.904;2023-10-13T04:39:20;100677.97;;;23.49
61189;BMP280;47054;39.716;2.904;2023-10-13T04:42:13;100672.97;;;23.47
61189;BMP280;47054;39.716;2.904;2023-10-13T04:45:19;100670.66;;;23.46
61189;BMP280;47054;39.716;2.904;2023-10-13T04:48:16;100669.91;;;23.42
61189;BMP280;47054;39.716;2.904;2023-10-13T04:51:07;100667.19;;;23.42
61189;BMP280;47054;39.716;2.904;2023-10-13T04:54:25;100674.19;;;23.39
61189;BMP280;47054;39.716;2.904;2023-10-13T05:00:16;100671.88;;;23.38
61189;BMP280;47054;39.716;2.904;2023-10-13T05:03:01;100673.81;;;23.37
61189;BMP280;47054;39.716;2.904;2023-10-13T05:06:06;100648.06;;;23.22
61189;BMP280;47054;39.716;2.904;2023-10-13T05:09:26;100666.09;;;23.36
61189;BMP280;47054;39.716;2.904;2023-10-13T05:12:48;100666.47;;;23.34
61189;BMP280;47054;39.716;2.904;2023-10-13T05:16:10;100669.63;;;23.33
61189;BMP280;47054;39.716;2.904;2023-10-13T05:19:32;100670.41;;;23.30
61189;BMP280;47054;39.716;2.904;2023-10-13T05:22:35;100673.09;;;23.30
61189;BMP280;47054;39.716;2.904;2023-10-13T05:25:56;100667.31;;;23.28
61189;BMP280;47054;39.716;2.904;2023-10-13T05:28:58;100670.00;;;23.28
61189;BMP280;47054;39.716;2.904;2023-10-13T05:32:22;100663.47;;;23.25
61189;BMP280;47054;39.716;2.904;2023-10-13T05:35:25;100666.97;;;23.26
61189;BMP280;47054;39.716;2.904;2023-10-13T05:38:47;100655.75;;;23.20
61189;BMP280;47054;39.716;2.904;2023-10-13T05:41:55;100669.69;;;23.22
61189;BMP280;47054;39.716;2.904;2023-10-13T05:44:58;100663.09;;;23.20
61189;BMP280;47054;39.716;2.904;2023-10-13T05:48:09;100661.16;;;23.20
61189;BMP280;47054;39.716;2.904;2023-10-13T05:51:00;100661.94;;;23.21
61189;BMP280;47054;39.716;2.904;2023-10-13T05:54:04;100658.47;;;23.20
61189;BMP280;47054;39.716;2.904;2023-10-13T05:56:58;100650.03;;;23.15
61189;BMP280;47054;39.716;2.904;2023-10-13T06:00:02;100656.19;;;23.19
61189;BMP280;47054;39.716;2.904;2023-10-13T06:03:04;100652.28;;;23.20
61189;BMP280;47054;39.716;2.904;2023-10-13T06:06:07;100641.16;;;23.11
61189;BMP280;47054;39.716;2.904;2023-10-13T06:09:11;100661.59;;;23.19
61189;BMP280;47054;39.716;2.904;2023-10-13T06:12:13;100663.09;;;23.20
61189;BMP280;47054;39.716;2.904;2023-10-13T06:15:16;100669.28;;;23.20
61189;BMP280;47054;39.716;2.904;2023-10-13T06:18:19;100668.16;;;23.18
61189;BMP280;47054;39.716;2.904;2023-10-13T06:21:22;100676.63;;;23.20
61189;BMP280;47054;39.716;2.904;2023-10-13T06:24:25;100679.34;;;23.20
61189;BMP280;47054;39.716;2.904;2023-10-13T06:27:28;100678.59;;;23.19
61189;BMP280;47054;39.716;2.904;2023-10-13T06:30:31;100681.66;;;23.21
61189;BMP280;47054;39.716;2.904;2023-10-13T17:22:43;100579.91;;;26.13
61189;BMP280;47054;39.716;2.904;2023-10-13T17:25:30;100578.88;;;26.43
61189;BMP280;47054;39.716;2.904;2023-10-13T17:28:15;100577.44;;;26.70
61189;BMP280;47054;39.716;2.904;2023-10-13T17:30:59;100580.94;;;26.87
61189;BMP280;47054;39.716;2.904;2023-10-13T17:33:45;100587.19;;;27.00
61189;BMP280;47054;39.716;2.904;2023-10-13T17:36:30;100581.94;;;27.09
61189;BMP280;47054;39.716;2.904;2023-10-13T17:39:15;100597.31;;;27.15
61189;BMP280;47054;39.716;2.904;2023-10-13T17:42:02;100601.91;;;27.18
61189;BMP280;47054;39.716;2.904;2023-10-13T17:44:46;100601.13;;;27.18
61189;BMP280;47054;39.716;2.904;2023-10-13T17:47:31;100591.09;;;27.15
61189;BMP280;47054;39.716;2.904;2023-10-13T17:50:16;100603.94;;;27.14
61189;BMP280;47054;39.716;2.904;2023-10-13T17:53:01;100596.28;;;27.09
61189;BMP280;47054;39.716;2.904;2023-10-13T17:55:46;100604.53;;;27.06
61189;BMP280;47054;39.716;2.904;2023-10-13T17:58:31;100596.53;;;26.99
61189;BMP280;47054;39.716;2.904;2023-10-13T18:01:16;100599.34;;;26.95
61189;BMP280;47054;39.716;2.904;2023-10-13T18:04:04;100589.50;;;26.85
61189;BMP280;47054;39.716;2.904;2023-10-13T18:06:53;100602.47;;;26.81
61189;BMP280;47054;39.716;2.904;2023-10-13T18:09:40;100601.41;;;26.75
61189;BMP280;47054;39.716;2.904;2023-10-13T18:12:25;100591.03;;;26.70
61189;BMP280;47054;39.716;2.904;2023-10-13T18:15:10;100595.81;;;26.66
61189;BMP280;47054;39.716;2.904;2023-10-13T18:18:02;100601.34;;;26.63
61189;BMP280;47054;39.716;2.904;2023-10-13T18:20:46;100600.72;;;26.55
61189;BMP280;47054;39.716;2.904;2023-10-13T18:23:31;100595.72;;;26.54
61189;BMP280;47054;39.716;2.904;2023-10-13T18:26:16;100597.31;;;26.51
61189;BMP280;47054;39.716;2.904;2023-10-13T18:29:00;100605.47;;;26.51
61189;BMP280;47054;39.716;2.904;2023-10-13T18:31:45;100604.78;;;26.47
61189;BMP280;47054;39.716;2.904;2023-10-13T18:34:30;100611.91;;;26.41
61189;BMP280;47054;39.716;2.904;2023-10-13T18:37:16;100611.50;;;26.43
61189;BMP280;47054;39.716;2.904;2023-10-13T18:40:00;100613.88;;;26.41
61189;BMP280;47054;39.716;2.904;2023-10-13T18:42:50;100612.69;;;26.42
61189;BMP280;47054;39.716;2.904;2023-10-13T18:45:36;100606.56;;;26.38
61189;BMP280;47054;39.716;2.904;2023-10-13T18:48:20;100613.25;;;26.33
61189;BMP280;47054;39.716;2.904;2023-10-13T18:51:07;100612.25;;;26.27
61189;BMP280;47054;39.716;2.904;2023-10-13T18:53:52;100607.72;;;26.20
61189;BMP280;47054;39.716;2.904;2023-10-13T18:56:40;100606.75;;;26.11
61189;BMP280;47054;39.716;2.904;2023-10-13T18:59:26;100608.84;;;26.03
61189;BMP280;47054;39.716;2.904;2023-10-13T19:02:11;100616.38;;;25.96
61189;BMP280;47054;39.716;2.904;2023-10-13T19:04:56;100614.63;;;25.86
61189;BMP280;47054;39.716;2.904;2023-10-13T19:07:41;100612.81;;;25.79
61189;BMP280;47054;39.716;2.904;2023-10-13T19:10:26;100616.38;;;25.76
61189;BMP280;47054;39.716;2.904;2023-10-13T19:13:11;100615.34;;;25.70
61189;BMP280;47054;39.716;2.904;2023-10-13T19:15:57;100612.41;;;25.61
61189;BMP280;47054;39.716;2.904;2023-10-13T19:18:45;100614.84;;;25.56
61189;BMP280;47054;39.716;2.904;2023-10-13T19:21:32;100610.75;;;25.44
61189;BMP280;47054;39.716;2.904;2023-10-13T19:24:24;100621.63;;;25.44
61189;BMP280;47054;39.716;2.904;2023-10-13T19:27:09;100619.41;;;25.39
61189;BMP280;47054;39.716;2.904;2023-10-13T19:29:54;100615.28;;;25.31
61189;BMP280;47054;39.716;2.904;2023-10-13T19:32:39;100625.03;;;25.29
61189;BMP280;47054;39.716;2.904;2023-10-13T19:35:23;100628.97;;;25.24
61189;BMP280;47054;39.716;2.904;2023-10-13T19:38:08;100623.59;;;25.21
61189;BMP280;47054;39.716;2.904;2023-10-13T19:40:52;100629.50;;;25.16
61189;BMP280;47054;39.716;2.904;2023-10-13T19:43:37;100629.19;;;25.10
61189;BMP280;47054;39.716;2.904;2023-10-13T19:46:21;100627.72;;;25.06
61189;BMP280;47054;39.716;2.904;2023-10-13T19:49:06;100626.63;;;24.99
61189;BMP280;47054;39.716;2.904;2023-10-13T19:51:51;100632.50;;;24.98
61189;BMP280;47054;39.716;2.904;2023-10-13T19:54:41;100633.31;;;24.95
61189;BMP280;47054;39.716;2.904;2023-10-13T19:57:26;100634.88;;;24.92
61189;BMP280;47054;39.716;2.904;2023-10-13T20:00:11;100615.66;;;24.83
61189;BMP280;47054;39.716;2.904;2023-10-13T20:03:04;100629.94;;;24.87
61189;BMP280;47054;39.716;2.904;2023-10-13T20:05:53;100635.41;;;24.84
61189;BMP280;47054;39.716;2.904;2023-10-13T20:08:40;100639.28;;;24.83
61189;BMP280;47054;39.716;2.904;2023-10-13T20:11:24;100633.09;;;24.82
61189;BMP280;47054;39.716;2.904;2023-10-13T20:14:09;100626.56;;;24.80
61189;BMP280;47054;39.716;2.904;2023-10-13T20:16:53;100631.22;;;24.79
61189;BMP280;47054;39.716;2.904;2023-10-13T20:19:39;100620.47;;;24.72
61189;BMP280;47054;39.716;2.904;2023-10-13T20:22:24;100631.66;;;24.74
61189;BMP280;47054;39.716;2.904;2023-10-13T20:25:08;100622.41;;;24.72
61189;BMP280;47054;39.716;2.904;2023-10-13T20:27:58;100637.13;;;24.71
61189;BMP280;47054;39.716;2.904;2023-10-13T20:30:45;100623.25;;;24.65
61189;BMP280;47054;39.716;2.904;2023-10-13T20:33:29;100631.78;;;24.67
61189;BMP280;47054;39.716;2.904;2023-10-13T20:36:14;100633.38;;;24.65
61189;BMP280;47054;39.716;2.904;2023-10-13T20:39:02;100620.31;;;24.56
61189;BMP280;47054;39.716;2.904;2023-10-13T20:41:47;100627.97;;;24.61
61189;BMP280;47054;39.716;2.904;2023-10-13T20:44:33;100621.44;;;24.59
61189;BMP280;47054;39.716;2.904;2023-10-13T20:47:21;100615.66;;;24.57
61189;BMP280;47054;39.716;2.904;2023-10-13T20:50:06;100626.91;;;24.55
61189;BMP280;47054;39.716;2.904;2023-10-13T20:52:52;100621.53;;;24.52
61189;BMP280;47054;39.716;2.904;2023-10-13T20:55:37;100620.75;;;24.51
61189;BMP280;47054;39.716;2.904;2023-10-13T20:58:22;100621.56;;;24.48
61189;BMP280;47054;39.716;2.904;2023-10-13T21:01:10;100617.75;;;24.46
61189;BMP280;47054;39.716;2.904;2023-10-13T21:03:55;100620.56;;;24.39
61189;BMP280;47054;39.716;2.904;2023-10-13T21:06:40;100614.31;;;24.42
61189;BMP280;47054;39.716;2.904;2023-10-13T21:09:28;100615.91;;;24.39
61189;BMP280;47054;39.716;2.904;2023-10-13T21:12:13;100619.44;;;24.36
61189;BMP280;47054;39.716;2.904;2023-10-13T21:14:58;100617.50;;;24.33
61189;BMP280;47054;39.716;2.904;2023-10-13T21:17:48;100615.59;;;24.30
61189;BMP280;47054;39.716;2.904;2023-10-13T21:20:33;100602.91;;;24.24
61189;BMP280;47054;39.716;2.904;2023-10-13T21:23:18;100611.00;;;24.27
61189;BMP280;47054;39.716;2.904;2023-10-13T21:26:05;100620.31;;;24.26
61189;BMP280;47054;39.716;2.904;2023-10-13T21:28:50;100612.19;;;24.26
61189;BMP280;47054;39.716;2.904;2023-10-13T21:31:35;100613.72;;;24.27
61189;BMP280;47054;39.716;2.904;2023-10-13T21:34:22;100614.47;;;24.28
61189;BMP280;47054;39.716;2.904;2023-10-13T21:37:07;100616.03;;;24.29
61189;BMP280;47054;39.716;2.904;2023-10-13T21:39:55;100616.41;;;24.27
61189;BMP280;47054;39.716;2.904;2023-10-13T21:42:40;100608.69;;;24.29
61189;BMP280;47054;39.716;2.904;2023-10-13T21:45:26;100611.41;;;24.29
61189;BMP280;47054;39.716;2.904;2023-10-13T21:48:12;100611.41;;;24.29
61189;BMP280;47054;39.716;2.904;2023-10-13T21:50:57;100614.44;;;24.31
61189;BMP280;47054;39.716;2.904;2023-10-13T21:53:42;100610.63;;;24.29
61189;BMP280;47054;39.716;2.904;2023-10-13T21:56:27;100615.56;;;24.34
61189;BMP280;47054;39.716;2.904;2023-10-13T21:59:15;100614.06;;;24.33
61189;BMP280;47054;39.716;2.904;2023-10-13T22:02:00;100618.22;;;24.37
61189;BMP280;47054;39.716;2.904;2023-10-13T22:04:44;100613.56;;;24.38
61189;BMP280;47054;39.716;2.904;2023-10-13T22:07:29;100620.56;;;24.39
61189;BMP280;47054;39.716;2.904;2023-10-13T22:10:18;100625.56;;;24.40
61189;BMP280;47054;39.716;2.904;2023-10-13T22:13:02;100625.56;;;24.40
61189;BMP280;47054;39.716;2.904;2023-10-13T22:15:47;100615.13;;;24.39
61189;BMP280;47054;39.716;2.904;2023-10-13T22:18:36;100617.06;;;24.38
61189;BMP280;47054;39.716;2.904;2023-10-13T22:21:20;100618.66;;;24.36
61189;BMP280;47054;39.716;2.904;2023-10-13T22:24:06;100615.56;;;24.34
61189;BMP280;47054;39.716;2.904;2023-10-13T22:26:54;100610.94;;;24.31
61189;BMP280;47054;39.716;2.904;2023-10-13T22:29:39;100613.72;;;24.27
61189;BMP280;47054;39.716;2.904;2023-10-13T22:32:26;100611.03;;;24.24
61189;BMP280;47054;39.716;2.904;2023-10-13T22:35:10;100608.41;;;24.17
61189;BMP280;47054;39.716;2.904;2023-10-13T22:38:02;100612.00;;;24.10
61189;BMP280;47054;39.716;2.904;2023-10-13T22:40:51;100599.31;;;24.04
61189;BMP280;47054;39.716;2.904;2023-10-13T22:43:35;100601.66;;;24.02
61189;BMP280;47054;39.716;2.904;2023-10-13T22:46:20;100587.72;;;24.00
61189;BMP280;47054;39.716;2.904;2023-10-13T22:49:05;100587.34;;;24.01
61189;BMP280;47054;39.716;2.904;2023-10-13T22:51:50;100580.75;;;24.02
61189;BMP280;47054;39.716;2.904;2023-10-13T22:54:35;100582.72;;;24.02
61189;BMP280;47054;39.716;2.904;2023-10-13T22:57:21;100562.31;;;23.90
61189;BMP280;47054;39.716;2.904;2023-10-13T23:00:06;100576.94;;;23.96
61189;BMP280;47054;39.716;2.904;2023-10-13T23:02:54;100570.44;;;23.90
61189;BMP280;47054;39.716;2.904;2023-10-13T23:05:40;100582.13;;;23.83
61189;BMP280;47054;39.716;2.904;2023-10-13T23:08:38;100575.25;;;23.75
61189;BMP280;47054;39.716;2.904;2023-10-13T23:11:23;100571.09;;;23.64
61189;BMP280;47054;39.716;2.904;2023-10-13T23:14:16;100579.66;;;23.62
61189;BMP280;47054;39.716;2.904;2023-10-13T23:17:02;100570.03;;;23.54
61189;BMP280;47054;39.716;2.904;2023-10-13T23:19:47;100575.53;;;23.47
61189;BMP280;47054;39.716;2.904;2023-10-13T23:22:33;100568.25;;;23.41
61189;BMP280;47054;39.716;2.904;2023-10-13T23:25:18;100563.66;;;23.34
61189;BMP280;47054;39.716;2.904;2023-10-13T23:28:05;100566.41;;;23.27
61189;BMP280;47054;39.716;2.904;2023-10-13T23:30:50;100562.63;;;23.21
61189;BMP280;47054;39.716;2.904;2023-10-13T23:33:35;100563.47;;;23.15
61189;BMP280;47054;39.716;2.904;2023-10-13T23:36:20;100568.13;;;23.11
61189;BMP280;47054;39.716;2.904;2023-10-13T23:39:05;100562.38;;;23.05
61189;BMP280;47054;39.716;2.904;2023-10-13T23:41:55;100557.41;;;23.00
61189;BMP280;47054;39.716;2.904;2023-10-13T23:44:40;100555.53;;;22.90
61189;BMP280;47054;39.716;2.904;2023-10-13T23:47:30;100567.13;;;22.91
61189;BMP280;47054;39.716;2.904;2023-10-13T23:50:15;100568.31;;;22.86
61189;BMP280;47054;39.716;2.904;2023-10-13T23:53:11;100569.13;;;22.80
61189;BMP280;47054;39.716;2.904;2023-10-13T23:56:05;100587.69;;;22.78
61189;BMP280;47054;39.716;2.904;2023-10-13T23:59:17;100579.22;;;22.68
